KMOR/MOR METAR and TAF weather

Enter ICAO airport designator
Station Type Date Time Source
KMOR METAR 2018/12/15 23:55 UTC NOAA

KMOR 152355Z AUTO 25009KT 230V290 10SM SCT012 OVC046 08/07 A2991 RMK A01


Station Type Date Time Source
KMOR Decoded METAR 2018/12/15 23:55 UTC NOAA

Station name not available
Dec 15, 2018 - 06:55 PM EST / 2018.12.15 2355 UTC
Wind: from the WSW (250 degrees) at 10 MPH (9 KT) (direction variable):0
Visibility: 10 mile(s):0
Sky conditions: overcast
Temperature: 46 F (8 C)
Dew Point: 44 F (7 C)
Relative Humidity: 93%
Pressure (altimeter): 29.91 in. Hg (1012 hPa)
ob: KMOR 152355Z AUTO 25009KT 230V290 10SM SCT012 OVC046 08/07 A2991 RMK A01
cycle: 0

Station Type Date Time Source
KMOR TAF UTC NOAA

Error!


Example: see airport list